Flight Track Log - Related Links

Times and Time Zones

All times are in EDT time to prevent confusion due to time zone crossing. See the FSR411 flight status page for this flight to view local times or setup timezone preferences in your user account.

Time Position Orientation Groundspeed Altitude Reporting Facility
EDT Latitude Longitude Course Direction KTS MPH feet Rate Location/Type
Sun 01:14:00 PM 31.1970 -98.1197 40° Northeast  Level FlightAware Approximate
Sun 01:15:00 PM 31.2864 -98.0303 40° Northeast  Level FlightAware Approximate
Sun 01:16:00 PM 31.3759 -97.9408 40° Northeast  Level FlightAware Approximate
Sun 01:16:02 PM 30.5006 -98.3108 40° Northeast 260 299 3,100  Level Houston Center
Sun 01:17:00 PM 31.4653 -97.8513 40° Northeast  Level FlightAware Approximate
Sun 01:17:04 PM 30.5717 -98.2775 22° Northeast 273 314 3,000  Level Houston Center
Sun 01:18:00 PM 31.5591 -97.7679 37° Northeast  Level FlightAware Approximate
Sun 01:18:06 PM 30.6483 -98.2603 11° North 274 315 4,800  Level Houston Center
Sun 01:19:00 PM 31.6467 -97.6767 49° Northeast  Level FlightAware Approximate
Sun 01:19:08 PM 30.7314 -98.2417 11° North 285 328 8,400  Level Houston Center
Sun 01:20:00 PM 31.7373 -97.5895 36° Northeast  Level FlightAware Approximate
Sun 01:20:10 PM 30.8167 -98.2244 10° North 297 342 12,200  Level Houston Center
Sun 01:21:00 PM 31.8296 -97.5038 40° Northeast  Level FlightAware Approximate
Sun 01:21:12 PM 30.9031 -98.1708 28° Northeast 334 384 15,600  Level Houston Center
Sun 01:22:14 PM 31.0042 -98.0747 39° Northeast 377 434 19,600 3,213 Climbing Houston Center
Sun 01:23:19 PM 31.0942 -97.9911 38° Northeast 417 480 22,400 2,740 Climbing Fort Worth Center
Sun 01:24:21 PM 31.1889 -97.9008 39° Northeast 434 499 25,400 2,419 Climbing Fort Worth Center
Sun 01:25:23 PM 31.2878 -97.8089 38° Northeast 448 516 27,400 1,920 Climbing Fort Worth Center
Sun 01:26:26 PM 31.3903 -97.7136 38° Northeast 464 534 29,400 2,112 Climbing Fort Worth Center
Sun 01:27:28 PM 31.5147 -97.5947 39° Northeast 474 545 31,800 2,129 Climbing Fort Worth Center
Sun 01:28:30 PM 31.6181 -97.4961 39° Northeast 475 547 33,800 1,548 Climbing Fort Worth Center
Sun 01:29:32 PM 31.7217 -97.3989 39° Northeast 476 548 35,000 968 Climbing Fort Worth Center
Sun 01:30:34 PM 31.8292 -97.2953 39° Northeast 493 567 35,800 484 Climbing Fort Worth Center
Sun 01:31:36 PM 31.9381 -97.1908 39° Northeast 501 577 36,000 97 Climbing Fort Worth Center
Sun 01:32:38 PM 32.0564 -97.0753 40° Northeast 502 578 36,000 194 Level Fort Worth Center
Sun 01:33:40 PM 32.1631 -96.9739 39° Northeast 498 573 36,400 871 Climbing Fort Worth Center
Sun 01:34:42 PM 32.2694 -96.8725 39° Northeast 495 570 37,800 1,355 Climbing Fort Worth Center
Sun 01:35:44 PM 32.3731 -96.7722 39° Northeast 487 560 39,200 1,258 Climbing Fort Worth Center
Sun 01:36:46 PM 32.4969 -96.6503 40° Northeast 486 559 40,400 871 Climbing Fort Worth Center
Sun 01:37:48 PM 32.6000 -96.5506 39° Northeast 485 558 41,000 290 Climbing Fort Worth Center
Sun 01:38:50 PM 32.7050 -96.4489 39° Northeast 487 560 41,000  Level Fort Worth Center
Sun 01:39:52 PM 32.8092 -96.3469 39° Northeast 488 562 41,000  Level Fort Worth Center
Sun 01:40:54 PM 32.9122 -96.2447 40° Northeast 487 560 41,000  Level Fort Worth Center
Sun 01:41:56 PM 33.0336 -96.1244 40° Northeast 480 552 41,000  Level Fort Worth Center
Sun 01:42:57 PM 33.1364 -96.0236 39° Northeast 479 551 41,000  Level Fort Worth Center
Sun 01:43:59 PM 33.2375 -95.9219 40° Northeast 479 551 41,000  Level Fort Worth Center
Sun 01:45:01 PM 33.3400 -95.8211 39° Northeast 479 551 41,000  Level Fort Worth Center
Sun 01:46:03 PM 33.4411 -95.7189 40° Northeast 479 551 41,000  Level Fort Worth Center
Sun 01:47:05 PM 33.5439 -95.6169 40° Northeast 479 551 41,000  Level Fort Worth Center
Sun 01:48:07 PM 33.6553 -95.5014 41° Northeast 479 551 41,000  Level Fort Worth Center
Sun 01:49:09 PM 33.7581 -95.3981 40° Northeast 479 551 41,000  Level Fort Worth Center
Sun 01:50:11 PM 33.8597 -95.2947 40° Northeast 481 554 41,000  Level Fort Worth Center
Sun 01:51:13 PM 33.9642 -95.1883 40° Northeast 485 558 41,000  Level Fort Worth Center
Sun 01:52:15 PM 34.0878 -95.0628 40° Northeast 484 557 41,000  Level Fort Worth Center
Sun 01:53:17 PM 34.1914 -94.9569 40° Northeast 484 557 41,000  Level Fort Worth Center
Sun 01:54:19 PM 34.2961 -94.8489 40° Northeast 493 567 41,000  Level Fort Worth Center
Sun 01:55:21 PM 34.3986 -94.7433 40° Northeast 488 562 41,000  Level Fort Worth Center
Sun 01:56:22 PM 34.5014 -94.6372 40° Northeast 486 559 41,000  Level Fort Worth Center
Sun 01:57:24 PM 34.6036 -94.5292 41° Northeast 486 559 41,000  Level Fort Worth Center
Sun 01:58:26 PM 34.7058 -94.4236 40° Northeast 485 558 41,000  Level Fort Worth Center
Sun 01:59:28 PM 34.8281 -94.2958 41° Northeast 484 557 41,000  Level Fort Worth Center
Sun 02:00:30 PM 34.9322 -94.1850 41° Northeast 484 557 41,000  Level Fort Worth Center
Sun 02:01:32 PM 35.0344 -94.0783 40° Northeast 483 556 41,000  Level Fort Worth Center
Sun 02:02:34 PM 35.1356 -93.9711 41° Northeast 483 556 41,000  Level Fort Worth Center
Sun 02:03:37 PM 35.2375 -93.8639 41° Northeast 482 555 41,000  Level Fort Worth Center
Sun 02:04:39 PM 35.3386 -93.7553 41° Northeast 482 555 41,000  Level Fort Worth Center
Sun 02:05:41 PM 35.4400 -93.6467 41° Northeast 482 555 41,000  Level Fort Worth Center
Sun 02:06:57 PM 35.5822 -93.4950 41° Northeast 482 555 41,000  Level Memphis Center
Sun 02:07:59 PM 35.6831 -93.3861 41° Northeast 482 555 41,000  Level Memphis Center
Sun 02:09:01 PM 35.7833 -93.2781 41° Northeast 480 552 41,000  Level Memphis Center
Sun 02:10:02 PM 35.8822 -93.1708 41° Northeast 474 545 41,000  Level Memphis Center
Sun 02:11:04 PM 35.9803 -93.0622 42° Northeast 474 545 41,000  Level Memphis Center
Sun 02:12:06 PM 36.0794 -92.9539 41° Northeast 474 545 41,000  Level Memphis Center
Sun 02:13:08 PM 36.1772 -92.8458 42° Northeast 474 545 41,000  Level Memphis Center
Sun 02:14:10 PM 36.2761 -92.7375 41° Northeast 474 545 41,000  Level Memphis Center
Sun 02:15:12 PM 36.3958 -92.6061 41° Northeast 475 547 41,000  Level Memphis Center
Sun 02:16:13 PM 36.4956 -92.4953 42° Northeast 475 547 41,000  Level Memphis Center
Sun 02:17:15 PM 36.5953 -92.3847 42° Northeast 475 547 41,000  Level Memphis Center
Sun 02:18:17 PM 36.6936 -92.2742 42° Northeast 475 547 41,000  Level Memphis Center
Sun 02:19:19 PM 36.7925 -92.1633 42° Northeast 476 548 41,000  Level Memphis Center
Sun 02:20:21 PM 36.8919 -92.0531 42° Northeast 476 548 41,000  Level Memphis Center
Sun 02:21:23 PM 36.9914 -91.9408 42° Northeast 476 548 41,000  Level Memphis Center
Sun 02:22:25 PM 37.1092 -91.8050 43° Northeast 476 548 41,000  Level Memphis Center
Sun 02:23:27 PM 37.2069 -91.6936 42° Northeast 477 549 41,000  Level Memphis Center
Sun 02:24:31 PM 37.3081 -91.5783 42° Northeast 479 551 41,000  Level Kansas City Center
Sun 02:25:36 PM 37.4067 -91.4667 42° Northeast 479 551 41,000  Level Kansas City Center
Sun 02:26:36 PM 37.5247 -91.3308 42° Northeast 479 551 41,000  Level Kansas City Center
Sun 02:27:40 PM 37.6233 -91.2181 42° Northeast 479 551 41,000  Level Kansas City Center
Sun 02:28:40 PM 37.7203 -91.1039 43° Northeast 479 551 41,000  Level Kansas City Center
Sun 02:29:44 PM 37.8139 -90.9947 43° Northeast 479 551 41,000 -429 Level Kansas City Center
Sun 02:30:46 PM 37.8886 -90.8569 55° Northeast 479 551 40,100 -1,180 Descending Kansas City Center
Sun 02:31:46 PM 37.9592 -90.7147 58° Northeast 481 554 38,600 -1,548 Descending Kansas City Center
Sun 02:32:50 PM 38.0356 -90.5306 62° Northeast 489 563 36,900 -1,500 Descending Kansas City Center
Sun 02:33:50 PM 38.1000 -90.3786 62° Northeast 490 564 35,500 -1,210 Descending Kansas City Center
Sun 02:34:54 PM 38.1647 -90.2275 61° Northeast 493 567 34,400 -1,258 Descending Kansas City Center
Sun 02:35:54 PM 38.2294 -90.0756 61° Northeast 492 566 32,900 -1,548 Descending Kansas City Center
Sun 02:36:58 PM 38.2981 -89.9192 61° Northeast 503 579 31,200 -1,776 Descending Kansas City Center
Sun 02:37:59 PM 38.4050 -89.7556 50° Northeast 500 575 29,200 -1,728 Descending Kansas City Center
Sun 02:39:03 PM 38.5161 -89.6556 35° Northeast 517 595 27,600 -1,248 Descending Kansas City Center
Sun 02:40:04 PM 38.6275 -89.5614 33° Northeast 493 567 26,600 -1,161 Descending Kansas City Center
Sun 02:41:07 PM 38.7397 -89.4728 32° Northeast 488 562 25,200 -1,610 Descending Kansas City Center
Sun 02:42:07 PM 38.8792 -89.3858 26° Northeast 481 554 23,300 -1,790 Descending Kansas City Center
Sun 02:43:11 PM 38.9792 -89.2933 36° Northeast 453 521 21,500 -1,742 Descending Kansas City Center
Sun 02:44:11 PM 39.0792 -89.1967 37° Northeast 452 520 19,700 -1,839 Descending Kansas City Center
Sun 02:45:15 PM 39.1794 -89.1047 35° Northeast 451 519 17,700 -1,872 Descending Kansas City Center
Sun 02:46:16 PM 39.2764 -89.0161 35° Northeast 441 507 15,800 -1,934 Descending Kansas City Center
Sun 02:47:16 PM 39.3650 -88.9306 37° Northeast 420 483 13,800 -1,984 Descending Kansas City Center
Sun 02:48:20 PM 39.4653 -88.8306 38° Northeast 391 450 11,700 -1,548 Descending Kansas City Center
Sun 02:49:20 PM 39.5458 -88.7533 36° Northeast 380 437 10,600 -1,525 Descending Kansas City Center
Sun 02:50:22 PM 39.6172 -88.6839 37° Northeast 357 411 8,600 -1,619 Descending Kansas City Center
Sun 02:51:26 PM 39.6850 -88.6189 36° Northeast 333 383 7,200 -1,306 Descending Kansas City Center
Sun 02:52:26 PM 39.7494 -88.5575 36° Northeast 314 361 5,900 -1,016 Descending Kansas City Center
Sun 02:53:30 PM 39.8150 -88.4953 36° Northeast 303 349 5,100 -1,056 Descending Kansas City Center
Sun 02:54:31 PM 39.8881 -88.4244 37° Northeast 299 344 3,700 -1,377 Descending Kansas City Center
Sun 02:56:00 PM 40.0000 -88.3157 27° Northeast  Level Estimated
Sun 03:03:00 PM 40.0333 -88.2667 27° Northeast  Level FlightAware Approximate
Sun 03:04:00 PM 40.0388 -88.2778 27° Northeast  Level Estimated
Sun 03:05:00 PM 40.0388 -88.2778 27° Northeast  Level Estimated
Sun 03:06:00 PM 40.0388 -88.2778 27° Northeast  Level Estimated

Login

Don't have an account? Register now (free) for customized features, flight alerts, and more!